Terminal Aerodrome Forecast
Issued by NWS Buffalo, NY

Home | Current Version | Previous Version | Text Only | Print | Product List | Glossary On
Versions: 1 2 3 4 5 6 7 8 9 10 11 12 13 14 15 16 17 18 19 20 21 22 23 24 25 26 27 28 29
000
FTUS41 KBUF 220500
TAFBUF
TAF
KBUF 220539Z 2206/2306 31016G23KT P6SM VCSH OVC012
      TEMPO 2206/2207 BKN008
     FM220900 30012KT P6SM OVC020
     FM221300 30012G22KT P6SM BKN020
     FM222000 28012G19KT P6SM BKN035
     FM222300 28009KT P6SM SCT035
     FM230100 28007KT P6SM SCT250=

USA.gov is the U.S. government's official web portal to all federal, state and local government web resources and services.